Time;durP1;ratioP1;P1;durP2;ratioP2;P2;SDS_P1;SDS_P2;PMS_P1;PMS_P2;Temp;Humidity;BMP_temperature;BMP_pressure;BME280_temperature;BME280_humidity;BME280_pressure;Samples;Min_cycle;Max_cycle;Signal;HPM_P1;HPM_P2
2022/09/22 00:01:29;;;;;;;5.28;3.55;;;11.10;99.90;;;;;;5071795;28;20067;-50
2022/09/22 00:03:58;;;;;;;8.85;3.70;;;11.00;99.90;;;;;;5077582;28;20139;-51
2022/09/22 00:06:27;;;;;;;4.25;3.65;;;11.10;99.90;;;;;;5075313;28;20483;-51
2022/09/22 00:08:56;;;;;;;4.85;4.05;;;11.10;99.90;;;;;;5066278;28;20087;-50
2022/09/22 00:11:23;;;;;;;3.38;3.08;;;11.10;99.90;;;;;;5070165;28;20032;-50
2022/09/22 00:13:58;;;;;;;4.00;2.90;;;11.20;99.90;;;;;;5074739;28;20436;-51
2022/09/22 00:16:36;;;;;;;5.72;3.33;;;11.10;99.90;;;;;;5069160;28;20107;-51
2022/09/22 00:19:08;;;;;;;4.75;3.50;;;11.00;99.90;;;;;;5071071;28;20113;-51
2022/09/22 00:21:35;;;;;;;4.30;3.35;;;11.10;99.90;;;;;;5066758;28;20123;-53
2022/09/22 00:24:03;;;;;;;5.90;3.42;;;11.10;99.90;;;;;;5072152;28;20529;-50
2022/09/22 00:26:30;;;;;;;5.78;3.40;;;11.10;99.90;;;;;;5072869;28;20032;-50
2022/09/22 00:28:56;;;;;;;4.18;3.47;;;11.20;99.90;;;;;;5073506;28;20395;-50
2022/09/22 00:31:23;;;;;;;4.25;3.47;;;11.10;99.90;;;;;;5056907;28;20048;-51
2022/09/22 00:33:51;;;;;;;5.80;3.45;;;11.20;99.90;;;;;;5070364;28;20148;-52
2022/09/22 00:36:18;;;;;;;6.10;3.60;;;11.20;99.90;;;;;;5056573;28;20372;-50
2022/09/22 00:38:45;;;;;;;6.45;3.55;;;11.10;99.90;;;;;;5056831;28;20399;-51
2022/09/22 00:41:23;;;;;;;3.97;3.33;;;11.10;99.90;;;;;;5054690;28;20115;-50
2022/09/22 00:44:09;;;;;;;4.22;3.53;;;11.10;99.90;;;;;;5059742;28;20087;-52
2022/09/22 00:46:37;;;;;;;4.25;3.63;;;11.20;99.90;;;;;;5056577;28;20033;-51
2022/09/22 00:49:05;;;;;;;5.22;3.80;;;11.20;99.90;;;;;;5058083;28;20035;-51
2022/09/22 00:51:35;;;;;;;6.10;3.35;;;11.10;99.90;;;;;;5054534;28;20025;-51
2022/09/22 00:54:05;;;;;;;7.45;3.90;;;11.10;99.90;;;;;;5055461;28;20079;-51
2022/09/22 00:56:42;;;;;;;4.97;3.25;;;11.10;99.90;;;;;;5057548;28;20033;-50
2022/09/22 00:59:12;;;;;;;4.15;3.05;;;11.10;99.90;;;;;;5058602;28;20025;-50
2022/09/22 01:01:39;;;;;;;3.92;3.20;;;11.00;99.90;;;;;;5055873;28;20055;-51
2022/09/22 01:04:05;;;;;;;4.68;3.00;;;11.00;99.90;;;;;;5056630;28;20055;-51
2022/09/22 01:06:33;;;;;;;6.30;3.20;;;10.90;99.90;;;;;;5051449;28;20065;-50
2022/09/22 01:09:00;;;;;;;5.15;3.45;;;10.80;99.90;;;;;;5052067;28;20037;-51
2022/09/22 01:11:28;;;;;;;4.78;3.35;;;10.80;99.90;;;;;;5053177;28;20120;-51
2022/09/22 01:13:57;;;;;;;5.13;3.60;;;10.90;99.90;;;;;;5052521;28;20063;-51
2022/09/22 01:16:51;;;;;;;4.78;3.67;;;10.90;99.90;;;;;;5057179;28;20046;-50
2022/09/22 01:19:52;;;;;;;5.82;3.42;;;11.00;99.90;;;;;;5020738;28;20044;-51
2022/09/22 01:22:54;;;;;;;5.93;3.60;;;11.00;99.90;;;;;;5025258;28;20485;-52
2022/09/22 01:25:38;;;;;;;;;;;10.90;99.90;;;;;;5024340;28;20053;-52
2022/09/22 01:28:19;;;;;;;4.20;2.38;;;10.80;99.90;;;;;;5022523;28;20011;-51
2022/09/22 01:30:57;;;;;;;8.55;4.18;;;10.80;99.90;;;;;;5019709;28;20084;-51
2022/09/22 01:33:40;;;;;;;6.72;3.75;;;10.80;99.90;;;;;;5024832;28;20088;-51
2022/09/22 01:36:21;;;;;;;5.45;3.40;;;10.80;99.90;;;;;;5025810;28;20120;-51
2022/09/22 01:39:25;;;;;;;4.85;3.88;;;10.80;99.90;;;;;;5038000;28;20390;-51
2022/09/22 01:41:57;;;;;;;5.97;3.90;;;10.90;99.90;;;;;;5021046;28;20053;-51
2022/09/22 01:44:33;;;;;;;6.13;3.70;;;10.90;99.90;;;;;;5034821;28;20048;-50
2022/09/22 01:47:20;;;;;;;4.90;3.75;;;10.90;99.90;;;;;;5030714;28;20048;-51
2022/09/22 01:50:23;;;;;;;5.90;3.85;;;10.90;99.90;;;;;;5031318;28;20124;-50
2022/09/22 01:52:51;;;;;;;6.80;3.67;;;10.70;99.90;;;;;;5036127;28;20057;-52
2022/09/22 01:55:26;;;;;;;6.07;3.78;;;10.70;99.90;;;;;;5033622;28;20064;-51
2022/09/22 01:58:12;;;;;;;6.05;4.18;;;10.60;99.90;;;;;;5055290;28;20069;-53
2022/09/22 02:00:45;;;;;;;4.72;3.60;;;10.60;99.90;;;;;;5023946;28;20512;-51
2022/09/22 02:03:20;;;;;;;6.95;4.07;;;10.60;99.90;;;;;;5015467;28;20151;-51
2022/09/22 02:06:11;;;;;;;4.68;3.83;;;10.50;99.90;;;;;;5051181;28;20116;-51
2022/09/22 02:08:48;;;;;;;5.72;3.90;;;10.60;99.90;;;;;;5052497;28;20037;-50
2022/09/22 02:11:17;;;;;;;4.97;3.35;;;10.60;99.90;;;;;;5034550;28;20076;-51
2022/09/22 02:13:45;;;;;;;7.05;4.20;;;10.50;99.90;;;;;;5017386;28;20409;-51
2022/09/22 02:16:13;;;;;;;6.05;4.00;;;;;;;;;;4979219;28;20523;-51
2022/09/22 02:18:53;;;;;;;6.55;3.83;;;10.40;99.90;;;;;;5034944;28;20042;-50
2022/09/22 02:21:20;;;;;;;4.47;3.20;;;10.40;99.90;;;;;;5036222;28;20048;-51
2022/09/22 02:23:48;;;;;;;4.18;3.17;;;10.30;99.90;;;;;;5031413;28;20128;-51
2022/09/22 02:26:22;;;;;;;4.93;3.38;;;10.20;99.90;;;;;;5030952;28;20049;-51
2022/09/22 02:28:59;;;;;;;7.57;4.20;;;10.20;99.90;;;;;;5036009;28;20168;-51
2022/09/22 02:31:28;;;;;;;6.50;3.55;;;10.30;99.90;;;;;;5034852;28;20069;-51
2022/09/22 02:33:55;;;;;;;5.07;3.63;;;10.30;99.90;;;;;;5031890;28;20021;-51
2022/09/22 02:36:26;;;;;;;5.53;3.88;;;10.30;99.90;;;;;;5030312;28;20120;-51
2022/09/22 02:39:00;;;;;;;6.13;3.70;;;10.40;99.90;;;;;;5032774;28;20507;-51
2022/09/22 02:41:34;;;;;;;7.05;3.65;;;10.50;99.90;;;;;;5031339;28;20444;-51
2022/09/22 02:44:11;;;;;;;5.40;3.65;;;10.50;99.90;;;;;;5035727;28;20105;-51
2022/09/22 02:47:23;;;;;;;5.10;3.65;;;10.50;99.90;;;;;;5037513;28;20429;-51
2022/09/22 02:49:50;;;;;;;5.57;3.78;;;10.50;99.90;;;;;;5009970;28;20038;-51
2022/09/22 02:52:19;;;;;;;5.18;3.80;;;10.60;99.90;;;;;;5007640;28;20128;-51
2022/09/22 02:54:45;;;;;;;4.82;3.65;;;10.50;99.90;;;;;;5008435;28;20046;-51
2022/09/22 02:57:11;;;;;;;5.18;3.63;;;10.50;99.90;;;;;;5006751;28;20048;-51
2022/09/22 02:59:36;;;;;;;5.63;4.30;;;10.40;99.90;;;;;;4990005;28;20124;-51
2022/09/22 03:02:02;;;;;;;8.35;4.00;;;10.40;99.90;;;;;;5006995;28;20100;-52
2022/09/22 03:04:28;;;;;;;5.65;3.90;;;10.50;99.90;;;;;;5008684;28;20037;-51
2022/09/22 03:06:54;;;;;;;9.20;4.55;;;10.40;99.90;;;;;;5025922;28;20037;-51
2022/09/22 03:09:20;;;;;;;6.78;4.55;;;10.40;99.90;;;;;;4985053;28;20038;-52
2022/09/22 03:11:46;;;;;;;6.13;4.07;;;10.30;99.90;;;;;;5007921;28;20475;-51
2022/09/22 03:14:12;;;;;;;6.07;4.18;;;10.30;99.90;;;;;;5009420;28;20073;-50
2022/09/22 03:16:37;;;;;;;4.13;3.28;;;10.20;99.90;;;;;;5008404;28;20535;-51
2022/09/22 03:19:03;;;;;;;7.63;3.45;;;10.20;99.90;;;;;;5023834;28;20133;-51
2022/09/22 03:21:29;;;;;;;5.60;4.38;;;10.20;99.90;;;;;;5009321;28;20048;-51
2022/09/22 03:23:55;;;;;;;6.18;3.85;;;10.20;99.90;;;;;;5029585;28;20040;-51
2022/09/22 03:26:20;;;;;;;5.35;3.80;;;10.10;99.90;;;;;;5054465;28;20044;-51
2022/09/22 03:28:47;;;;;;;5.63;3.65;;;10.20;99.90;;;;;;5069223;28;20064;-51
2022/09/22 03:31:13;;;;;;;5.35;3.90;;;10.10;99.90;;;;;;5055544;28;20423;-53
2022/09/22 03:33:39;;;;;;;6.00;4.00;;;10.20;99.90;;;;;;5052306;28;20017;-51
2022/09/22 03:36:05;;;;;;;6.43;4.05;;;10.20;99.90;;;;;;5055097;28;20029;-51
2022/09/22 03:38:31;;;;;;;6.32;4.57;;;10.20;99.90;;;;;;5016335;28;20083;-51
2022/09/22 03:40:57;;;;;;;5.32;3.97;;;10.20;99.90;;;;;;5054605;28;20033;-51
2022/09/22 03:43:24;;;;;;;8.07;4.57;;;10.20;99.90;;;;;;5054738;28;20033;-51
2022/09/22 03:46:00;;;;;;;6.80;4.28;;;10.30;99.90;;;;;;5053729;28;20032;-51
2022/09/22 03:48:30;;;;;;;5.57;4.03;;;10.20;99.90;;;;;;5063693;28;20037;-51
2022/09/22 03:50:56;;;;;;;6.43;4.32;;;10.30;99.90;;;;;;5052308;28;20119;-51
2022/09/22 03:53:22;;;;;;;5.05;3.45;;;10.30;99.90;;;;;;5051167;28;20019;-51
2022/09/22 03:55:48;;;;;;;4.40;4.00;;;10.30;99.90;;;;;;5053975;28;20381;-51
2022/09/22 03:58:14;;;;;;;4.82;3.75;;;10.40;99.90;;;;;;5052641;28;20024;-51
2022/09/22 04:00:40;;;;;;;6.80;4.25;;;10.40;99.90;;;;;;5054084;28;20041;-53
2022/09/22 04:03:06;;;;;;;6.65;3.83;;;10.30;99.90;;;;;;5056033;28;20031;-51
2022/09/22 04:05:32;;;;;;;7.05;4.45;;;10.20;99.90;;;;;;5056224;28;20025;-50
2022/09/22 04:07:58;;;;;;;5.95;4.20;;;10.20;99.90;;;;;;5069922;28;20032;-52
2022/09/22 04:10:25;;;;;;;5.18;4.15;;;10.20;99.90;;;;;;5057641;28;20029;-51
2022/09/22 04:12:50;;;;;;;7.32;4.55;;;10.30;99.90;;;;;;5058978;28;20552;-51
2022/09/22 04:15:16;;;;;;;4.88;4.07;;;10.20;99.90;;;;;;5057313;28;20020;-51
2022/09/22 04:17:43;;;;;;;5.68;4.20;;;10.20;99.90;;;;;;5059414;28;20032;-51
2022/09/22 04:20:10;;;;;;;7.60;4.60;;;10.20;99.90;;;;;;5055234;28;20076;-51
2022/09/22 04:22:37;;;;;;;9.18;4.78;;;10.20;99.90;;;;;;5055095;28;20460;-51
2022/09/22 04:25:03;;;;;;;6.30;4.10;;;10.20;99.90;;;;;;5060623;28;20029;-52
2022/09/22 04:27:29;;;;;;;8.00;4.40;;;10.10;99.90;;;;;;5054315;28;20033;-51
2022/09/22 04:29:56;;;;;;;5.32;3.90;;;10.10;99.90;;;;;;5054148;28;20044;-51
2022/09/22 04:32:22;;;;;;;7.00;3.97;;;10.10;99.90;;;;;;5055026;28;20061;-50
2022/09/22 04:34:48;;;;;;;7.18;4.43;;;10.00;99.90;;;;;;5058115;28;20480;-51
2022/09/22 04:37:14;;;;;;;5.90;4.30;;;10.00;99.90;;;;;;5038498;28;20069;-51
2022/09/22 04:39:40;;;;;;;9.43;4.63;;;10.10;99.90;;;;;;5058122;28;20054;-52
2022/09/22 04:42:07;;;;;;;7.97;4.68;;;10.00;99.90;;;;;;5058523;28;20044;-51
2022/09/22 04:44:33;;;;;;;5.55;4.47;;;10.00;99.90;;;;;;5056260;28;20114;-51
2022/09/22 04:46:59;;;;;;;9.70;4.70;;;10.00;99.90;;;;;;5056848;28;20041;-51
2022/09/22 04:49:25;;;;;;;7.72;4.30;;;10.10;99.90;;;;;;5056384;28;20139;-52
2022/09/22 04:51:51;;;;;;;7.32;3.90;;;10.10;99.90;;;;;;5056140;28;20082;-52
2022/09/22 04:54:16;;;;;;;7.75;4.20;;;10.10;99.90;;;;;;5054162;28;20032;-51
2022/09/22 04:56:42;;;;;;;8.05;4.65;;;10.20;99.90;;;;;;5069096;28;20033;-51
2022/09/22 04:59:08;;;;;;;7.03;3.92;;;10.20;99.90;;;;;;5054586;28;20028;-51
2022/09/22 05:01:34;;;;;;;9.93;5.13;;;10.10;99.90;;;;;;5052026;28;20419;-51
2022/09/22 05:03:59;;;;;;;8.43;4.60;;;10.10;99.90;;;;;;5056486;28;20053;-51
2022/09/22 05:06:25;;;;;;;6.53;4.68;;;10.20;99.90;;;;;;5057419;28;20063;-50
2022/09/22 05:08:51;;;;;;;6.00;4.40;;;10.30;99.90;;;;;;5058746;28;20040;-52
2022/09/22 05:11:20;;;;;;;7.82;4.72;;;10.20;99.90;;;;;;5055627;28;20091;-51
2022/09/22 05:13:46;;;;;;;7.68;4.90;;;10.30;99.90;;;;;;5051473;28;20171;-51
2022/09/22 05:16:12;;;;;;;8.25;5.85;;;10.30;99.90;;;;;;5004916;28;20646;-51
2022/09/22 05:18:38;;;;;;;9.10;5.05;;;10.40;99.90;;;;;;5052742;28;20029;-51
2022/09/22 05:21:06;;;;;;;9.30;5.68;;;10.50;99.90;;;;;;5052114;28;20071;-52
2022/09/22 05:23:31;;;;;;;9.05;5.55;;;10.50;99.90;;;;;;5048403;28;20044;-52
2022/09/22 05:25:57;;;;;;;8.38;5.60;;;10.50;99.90;;;;;;5053016;28;20028;-51
2022/09/22 05:28:23;;;;;;;7.78;6.25;;;10.60;99.90;;;;;;5049384;28;20409;-52
2022/09/22 05:30:50;;;;;;;11.68;5.22;;;10.60;99.90;;;;;;5064522;28;20083;-52
2022/09/22 05:33:16;;;;;;;10.77;5.22;;;10.60;99.90;;;;;;5053352;28;20040;-54
2022/09/22 05:35:41;;;;;;;8.68;5.40;;;10.60;99.90;;;;;;5053710;28;20029;-55
2022/09/22 05:38:07;;;;;;;7.18;4.72;;;10.60;99.90;;;;;;5052422;28;20377;-55
2022/09/22 05:40:33;;;;;;;8.82;5.15;;;10.60;99.90;;;;;;5054878;28;20037;-56
2022/09/22 05:42:59;;;;;;;7.28;5.18;;;10.50;99.90;;;;;;5053753;28;20033;-56
2022/09/22 05:45:25;;;;;;;8.20;4.82;;;10.60;99.90;;;;;;5053098;28;20396;-56
2022/09/22 05:47:51;;;;;;;6.85;4.05;;;10.60;99.90;;;;;;5055894;28;20029;-55
2022/09/22 05:50:19;;;;;;;6.60;3.85;;;10.50;99.90;;;;;;5054574;28;20862;-56
2022/09/22 05:52:45;;;;;;;7.53;4.10;;;10.50;99.90;;;;;;5053172;28;20039;-55
2022/09/22 05:55:12;;;;;;;4.45;3.42;;;10.60;99.90;;;;;;5056589;28;20029;-55
2022/09/22 05:57:37;;;;;;;7.65;4.30;;;10.70;99.90;;;;;;5057605;28;20388;-55
2022/09/22 06:00:05;;;;;;;6.20;4.38;;;10.70;99.90;;;;;;5054624;28;20037;-55
2022/09/22 06:02:30;;;;;;;5.90;4.25;;;10.80;99.90;;;;;;5065355;28;20566;-55
2022/09/22 06:04:56;;;;;;;5.43;3.47;;;10.90;99.90;;;;;;5060593;28;20119;-56
2022/09/22 06:07:25;;;;;;;5.75;3.53;;;10.90;99.90;;;;;;5054414;28;20129;-55
2022/09/22 06:09:51;;;;;;;5.15;3.25;;;10.90;99.90;;;;;;5069009;28;20408;-56
2022/09/22 06:12:17;;;;;;;4.75;3.65;;;10.90;99.90;;;;;;5054692;28;20029;-56
2022/09/22 06:14:43;;;;;;;5.57;3.58;;;11.00;99.90;;;;;;5053975;28;20032;-56
2022/09/22 06:17:10;;;;;;;8.35;4.10;;;11.10;99.90;;;;;;5059980;28;20029;-55
2022/09/22 06:19:37;;;;;;;6.97;3.58;;;11.00;99.90;;;;;;5068774;28;20056;-54
2022/09/22 06:22:03;;;;;;;6.55;3.40;;;11.00;99.90;;;;;;5053758;28;20045;-55
2022/09/22 06:24:29;;;;;;;4.40;3.22;;;11.00;99.90;;;;;;5054646;28;20029;-55
2022/09/22 06:26:55;;;;;;;4.72;3.80;;;11.00;99.90;;;;;;5075684;28;20488;-55
2022/09/22 06:29:20;;;;;;;6.72;3.78;;;11.10;99.90;;;;;;5057002;28;20126;-56
2022/09/22 06:31:47;;;;;;;5.55;3.17;;;11.40;99.90;;;;;;5057457;28;20112;-56
2022/09/22 06:34:13;;;;;;;5.93;4.50;;;11.40;99.90;;;;;;5064666;28;20499;-54
2022/09/22 06:36:44;;;;;;;4.25;3.47;;;11.60;99.90;;;;;;5054103;28;20056;-54
2022/09/22 06:39:10;;;;;;;5.53;3.85;;;11.60;99.90;;;;;;5054881;28;20095;-56
2022/09/22 06:41:36;;;;;;;5.13;4.15;;;11.90;99.90;;;;;;5057555;28;20036;-56
2022/09/22 06:44:04;;;;;;;7.30;3.58;;;12.00;99.90;;;;;;5059517;28;20516;-55
2022/09/22 06:46:32;;;;;;;4.75;3.67;;;12.30;99.90;;;;;;5055150;28;20056;-55
2022/09/22 06:48:59;;;;;;;5.30;4.15;;;12.50;99.90;;;;;;5049284;28;20103;-55
2022/09/22 06:51:27;;;;;;;5.38;4.15;;;12.70;99.90;;;;;;5053288;28;20043;-55
2022/09/22 06:53:56;;;;;;;5.63;3.65;;;13.00;99.90;;;;;;5052557;28;20123;-55
2022/09/22 06:56:24;;;;;;;3.85;2.80;;;13.10;99.90;;;;;;5054216;28;20108;-54
2022/09/22 06:58:50;;;;;;;4.90;3.20;;;13.20;99.90;;;;;;5053498;28;20485;-55
2022/09/22 07:01:18;;;;;;;5.13;3.90;;;13.40;99.90;;;;;;5049293;28;20124;-54
2022/09/22 07:03:45;;;;;;;5.07;3.58;;;13.60;99.90;;;;;;5077007;28;20123;-54
2022/09/22 07:06:16;;;;;;;5.68;3.78;;;13.60;99.90;;;;;;5053356;28;20028;-56
2022/09/22 07:08:47;;;;;;;6.40;4.45;;;13.70;99.90;;;;;;5053284;28;20052;-54
2022/09/22 07:11:16;;;;;;;6.20;4.03;;;13.80;99.90;;;;;;5051545;28;20064;-56
2022/09/22 07:13:45;;;;;;;5.68;4.25;;;14.00;99.90;;;;;;5051317;28;20037;-54
2022/09/22 07:16:14;;;;;;;6.78;3.80;;;;;;;;;;5052778;28;20079;-56
2022/09/22 07:18:43;;;;;;;4.90;4.05;;;14.30;99.90;;;;;;5052637;28;20510;-56
2022/09/22 07:21:14;;;;;;;5.75;3.83;;;14.30;99.90;;;;;;5046288;28;20553;-56
2022/09/22 07:23:42;;;;;;;5.32;3.88;;;14.30;99.90;;;;;;5074376;28;20044;-52
2022/09/22 07:26:14;;;;;;;8.05;5.65;;;14.30;99.90;;;;;;5083869;28;20118;-51
2022/09/22 07:28:40;;;;;;;4.60;3.47;;;14.50;99.90;;;;;;5085650;28;20040;-57
2022/09/22 07:31:14;;;;;;;5.45;4.10;;;14.90;99.90;;;;;;5090241;28;20514;-53
2022/09/22 07:33:41;;;;;;;6.60;4.65;;;15.20;99.90;;;;;;5090686;28;20415;-54
2022/09/22 07:36:17;;;;;;;4.78;3.95;;;15.50;99.90;;;;;;5027111;28;20125;-55
2022/09/22 07:38:48;;;;;;;5.20;3.80;;;15.20;99.90;;;;;;5025506;28;20490;-55
2022/09/22 07:41:17;;;;;;;2.97;2.67;;;15.20;99.90;;;;;;5032209;28;20709;-56
2022/09/22 07:43:43;;;;;;;4.15;3.50;;;15.20;99.90;;;;;;5033786;28;20091;-56
2022/09/22 07:46:11;;;;;;;4.55;3.17;;;15.50;99.90;;;;;;5035647;28;20038;-56
2022/09/22 07:48:41;;;;;;;3.75;3.03;;;15.20;99.90;;;;;;4999844;28;20108;-56
2022/09/22 07:51:18;;;;;;;5.13;3.72;;;15.40;99.90;;;;;;5032819;28;20116;-56
2022/09/22 07:53:46;;;;;;;3.97;3.00;;;15.60;99.90;;;;;;5029593;28;20387;-56
2022/09/22 07:56:19;;;;;;;3.72;3.22;;;16.00;99.90;;;;;;5011372;28;20088;-56
2022/09/22 07:58:50;;;;;;;4.45;3.35;;;16.40;99.90;;;;;;5012701;28;20037;-56
2022/09/22 08:01:17;;;;;;;5.28;3.28;;;17.10;99.90;;;;;;5030631;28;20430;-56
2022/09/22 08:03:45;;;;;;;3.78;3.30;;;17.20;99.90;;;;;;5012651;28;20460;-56
2022/09/22 08:06:12;;;;;;;4.55;3.53;;;17.30;99.90;;;;;;5016923;28;20034;-56
2022/09/22 08:08:41;;;;;;;4.93;3.17;;;17.50;99.90;;;;;;5050432;28;20029;-56
2022/09/22 08:11:11;;;;;;;4.13;2.83;;;;;;;;;;5052756;28;20031;-56
2022/09/22 08:13:38;;;;;;;3.67;2.90;;;17.60;99.90;;;;;;5051984;28;20562;-56
2022/09/22 08:16:04;;;;;;;3.97;2.80;;;17.20;99.90;;;;;;5051867;28;20040;-56
2022/09/22 08:18:31;;;;;;;4.47;3.15;;;17.40;99.90;;;;;;5051341;28;20028;-56
2022/09/22 08:20:59;;;;;;;4.38;3.33;;;16.70;99.90;;;;;;5052482;28;20033;-56
2022/09/22 08:23:26;;;;;;;3.42;3.03;;;17.00;99.90;;;;;;5049973;28;20040;-58
2022/09/22 08:25:51;;;;;;;3.15;2.58;;;17.00;99.90;;;;;;5044734;28;20978;-56
2022/09/22 08:28:17;;;;;;;4.53;3.28;;;16.90;99.90;;;;;;5050017;28;20508;-56
2022/09/22 08:30:46;;;;;;;5.28;3.10;;;17.50;99.90;;;;;;5046404;28;20061;-56
2022/09/22 08:33:12;;;;;;;5.05;2.90;;;17.50;99.90;;;;;;5049102;28;20435;-56
2022/09/22 08:35:49;;;;;;;3.80;3.40;;;17.60;99.90;;;;;;5043541;28;20041;-56
2022/09/22 08:38:16;;;;;;;5.20;3.25;;;17.80;99.90;;;;;;5047152;28;20128;-56
2022/09/22 08:40:48;;;;;;;5.88;3.65;;;18.30;99.90;;;;;;5046401;28;20048;-56
2022/09/22 08:43:14;;;;;;;3.42;2.85;;;19.10;99.90;;;;;;5047209;28;20037;-56
2022/09/22 08:45:43;;;;;;;4.07;2.72;;;;;;;;;;5048812;28;20044;-56
2022/09/22 08:54:15;;;;;;;4.50;3.67;;;17.80;99.90;;;;;;5048540;28;20071;-56
2022/09/22 08:57:10;;;;;;;4.20;2.85;;;18.50;99.90;;;;;;5050598;28;20188;-56
2022/09/22 08:59:46;;;;;;;4.05;3.33;;;18.10;99.90;;;;;;5049587;28;20172;-56
2022/09/22 09:02:43;;;;;;;3.63;3.17;;;17.80;99.90;;;;;;5061439;28;20389;-56
2022/09/22 09:05:30;;;;;;;3.85;2.95;;;17.80;99.90;;;;;;5050073;28;20060;-56
2022/09/22 09:08:29;;;;;;;6.63;4.30;;;17.90;99.90;;;;;;5050865;28;20046;-56
2022/09/22 09:11:06;;;;;;;4.25;3.25;;;18.30;99.90;;;;;;5051354;28;20021;-56
2022/09/22 09:13:47;;;;;;;3.90;2.95;;;18.60;99.90;;;;;;5064398;28;20696;-56
2022/09/22 09:16:37;;;;;;;5.00;3.50;;;18.60;99.90;;;;;;5049313;28;20033;-56
2022/09/22 09:19:03;;;;;;;3.67;3.10;;;18.70;99.90;;;;;;5050026;28;20025;-56
2022/09/22 09:21:32;;;;;;;4.15;3.53;;;19.60;99.90;;;;;;5050634;28;20040;-54
2022/09/22 09:24:03;;;;;;;4.40;3.28;;;20.00;99.90;;;;;;5050037;28;20036;-54
2022/09/22 09:26:30;;;;;;;4.65;3.13;;;;;;;;;;5050181;28;20111;-55
2022/09/22 09:29:05;;;;;;;3.72;2.72;;;;;;;;;;5048882;28;20037;-55
2022/09/22 09:31:39;;;;;;;4.28;3.00;;;;;;;;;;5049409;28;20432;-55
2022/09/22 09:34:07;;;;;;;3.70;3.15;;;;;;;;;;5047455;28;20135;-55
2022/09/22 09:36:37;;;;;;;4.50;3.25;;;;;;;;;;5049260;28;20045;-55
2022/09/22 09:39:10;;;;;;;3.63;3.30;;;;;;;;;;5048044;28;20090;-55
2022/09/22 09:41:36;;;;;;;3.58;2.75;;;;;;;;;;5051088;28;20384;-54
2022/09/22 09:44:03;;;;;;;6.78;3.33;;;20.10;99.90;;;;;;5042921;28;20393;-55
2022/09/22 09:46:50;;;;;;;3.75;2.55;;;;;;;;;;5047979;28;20032;-54
2022/09/22 09:49:17;;;;;;;3.55;3.03;;;;;;;;;;5050321;28;20035;-52
2022/09/22 09:51:52;;;;;;;4.47;3.03;;;;;;;;;;5050789;28;20025;-56
2022/09/22 09:54:18;;;;;;;3.25;2.65;;;;;;;;;;5080756;28;20037;-54
2022/09/22 09:57:03;;;;;;;5.40;3.50;;;;;;;;;;5051624;28;20028;-55
2022/09/22 10:02:15;;;;;;;2.92;2.58;;;;;;;;;;5049761;28;20479;-55
2022/09/22 10:04:48;;;;;;;4.63;3.15;;;;;;;;;;5051648;28;20053;-55
2022/09/22 10:07:16;;;;;;;3.45;2.35;;;;;;;;;;5050500;28;20037;-55
2022/09/22 10:09:43;;;;;;;3.03;2.58;;;21.60;99.90;;;;;;5050076;28;20031;-50
2022/09/22 10:12:31;;;;;;;3.45;2.50;;;21.60;99.90;;;;;;5051591;28;20031;-50
2022/09/22 10:15:00;;;;;;;4.00;2.70;;;;;;;;;;5045306;28;20033;-52
2022/09/22 10:17:37;;;;;;;3.55;2.85;;;21.00;99.90;;;;;;5048757;28;20025;-54
2022/09/22 10:20:25;;;;;;;6.78;3.47;;;21.00;99.90;;;;;;5050754;28;20029;-46
2022/09/22 10:22:52;;;;;;;3.13;2.83;;;20.80;99.90;;;;;;5082692;28;20045;-52
2022/09/22 10:25:18;;;;;;;2.70;2.50;;;21.50;99.90;;;;;;5048727;28;20443;-52
2022/09/22 10:27:57;;;;;;;2.78;2.58;;;;;;;;;;5045851;28;20385;-55
2022/09/22 10:30:24;;;;;;;3.03;2.72;;;;;;;;;;5079340;28;20037;-51
2022/09/22 10:33:10;;;;;;;6.28;3.20;;;;;;;;;;5047618;28;20068;-49
2022/09/22 10:35:37;;;;;;;3.38;2.83;;;;;;;;;;5063906;28;20596;-51
2022/09/22 10:38:12;;;;;;;3.28;2.97;;;21.90;99.90;;;;;;5067714;28;20048;-51
2022/09/22 10:40:41;;;;;;;4.75;3.42;;;21.70;99.90;;;;;;5066954;28;20040;-52
2022/09/22 10:43:34;;;;;;;2.75;2.38;;;22.30;99.90;;;;;;5068353;28;20209;-52
2022/09/22 10:46:36;;;;;;;3.10;2.80;;;21.90;99.90;;;;;;5061205;28;20075;-52
2022/09/22 10:49:14;;;;;;;3.80;2.85;;;21.20;99.90;;;;;;5068044;28;20027;-51
2022/09/22 10:51:55;;;;;;;3.25;2.65;;;;;;;;;;5055101;28;20059;-51
2022/09/22 10:54:26;;;;;;;5.03;2.45;;;;;;;;;;5068638;28;20036;-51
2022/09/22 10:56:58;;;;;;;2.67;2.40;;;22.60;99.90;;;;;;5069564;28;20043;-51
2022/09/22 10:59:24;;;;;;;;;;;;;;;;;;5074749;28;20029;-51
2022/09/22 11:01:56;;;;;;;5.28;2.28;;;;;;;;;;5072611;28;20433;-51
2022/09/22 11:04:22;;;;;;;;;;;;;;;;;;5057520;28;20045;-51
2022/09/22 11:12:29;;;;;;;3.60;2.20;;;22.20;99.90;;;;;;5052632;28;20565;-51
2022/09/22 11:15:16;;;;;;;3.28;2.55;;;;;;;;;;5051247;28;20730;-51
2022/09/22 11:18:12;;;;;;;2.97;2.67;;;21.50;99.90;;;;;;5055857;28;20465;-53
2022/09/22 11:20:43;;;;;;;2.95;2.53;;;21.20;99.90;;;;;;5051597;28;20094;-51
2022/09/22 11:23:20;;;;;;;3.28;2.10;;;;;;;;;;5052808;28;20381;-52
2022/09/22 11:26:24;;;;;;;2.63;2.28;;;21.90;99.90;;;;;;5053282;28;20037;-51
2022/09/22 11:29:08;;;;;;;3.42;2.53;;;;;;;;;;5030416;28;20042;-51
2022/09/22 11:32:17;;;;;;;7.95;2.58;;;20.60;99.90;;;;;;5034011;28;20057;-53
2022/09/22 11:34:58;;;;;;;2.60;2.40;;;;;;;;;;4996481;28;20068;-52
2022/09/22 11:37:49;;;;;;;2.58;2.10;;;20.40;99.90;;;;;;5031464;28;20060;-52
2022/09/22 11:40:32;;;;;;;4.32;2.45;;;20.40;99.90;;;;;;5032099;28;20030;-51
2022/09/22 11:43:22;;;;;;;2.67;2.30;;;20.60;99.90;;;;;;5029910;28;20131;-51
2022/09/22 11:46:00;;;;;;;3.05;2.47;;;20.00;99.90;;;;;;5035583;28;20114;-52
2022/09/22 11:48:39;;;;;;;4.53;2.17;;;20.00;99.90;;;;;;5034773;28;20052;-52
2022/09/22 11:51:23;;;;;;;2.55;2.17;;;20.50;99.90;;;;;;5034954;28;20026;-51
2022/09/22 11:53:55;;;;;;;3.83;2.33;;;20.60;99.90;;;;;;5033566;28;20022;-51
2022/09/22 11:56:21;;;;;;;;;;;;;;;;;;5032777;28;20480;-51
2022/09/22 11:58:48;;;;;;;2.20;2.00;;;;;;;;;;5032326;28;19938;-52
2022/09/22 12:01:20;;;;;;;3.33;1.90;;;21.80;99.90;;;;;;5038328;28;20488;-52
2022/09/22 12:03:49;;;;;;;4.05;2.53;;;;;;;;;;5031040;28;20055;-52
2022/09/22 12:06:17;;;;;;;2.30;2.00;;;;;;;;;;5031312;28;20022;-52
2022/09/22 12:08:57;;;;;;;2.63;2.22;;;20.70;99.90;;;;;;5031093;28;20420;-53
2022/09/22 12:11:26;;;;;;;2.53;2.25;;;;;;;;;;5031237;28;20041;-52
2022/09/22 12:13:54;;;;;;;3.03;2.10;;;21.30;99.90;;;;;;5030628;28;20029;-52
2022/09/22 12:16:24;;;;;;;2.17;1.83;;;20.80;99.90;;;;;;5033265;28;20033;-51
2022/09/22 12:19:29;;;;;;;2.85;2.00;;;20.50;99.90;;;;;;5032107;28;20053;-52
2022/09/22 12:22:21;;;;;;;2.70;2.00;;;20.40;99.90;;;;;;5027712;28;20392;-51
2022/09/22 12:24:48;;;;;;;3.40;2.08;;;20.80;99.90;;;;;;5035639;28;20079;-52
2022/09/22 12:27:21;;;;;;;2.00;1.80;;;;;;;;;;5033918;28;20116;-52
2022/09/22 12:29:55;;;;;;;2.40;2.20;;;;;;;;;;5033708;28;20034;-52
2022/09/22 12:32:23;;;;;;;2.53;2.10;;;;;;;;;;5033765;28;20128;-52
2022/09/22 12:34:50;;;;;;;7.50;2.10;;;21.80;99.90;;;;;;5039915;28;20041;-51
2022/09/22 12:37:37;;;;;;;3.83;2.00;;;;;;;;;;5032973;28;20397;-52
2022/09/22 12:40:21;;;;;;;2.08;1.70;;;;;;;;;;5038697;28;20051;-52
2022/09/22 12:42:51;;;;;;;2.88;1.80;;;21.10;99.90;;;;;;5033531;28;20065;-51
2022/09/22 12:45:33;;;;;;;2.80;2.15;;;20.40;99.90;;;;;;5045117;28;21662;-51
2022/09/22 12:48:01;;;;;;;2.58;1.60;;;;;;;;;;5043072;28;20033;-52
2022/09/22 12:50:38;;;;;;;2.15;1.60;;;21.20;99.90;;;;;;5032522;28;20368;-52
2022/09/22 12:53:11;;;;;;;3.10;1.83;;;;;;;;;;5036995;28;20031;-53
2022/09/22 12:55:38;;;;;;;3.25;2.50;;;;;;;;;;5049932;28;20026;-51
2022/09/22 12:58:22;;;;;;;1.65;1.50;;;;;;;;;;5034244;28;20087;-52
2022/09/22 13:00:51;;;;;;;1.73;1.50;;;;;;;;;;5033003;28;20061;-52
2022/09/22 13:03:29;;;;;;;1.80;1.33;;;22.50;99.90;;;;;;5033194;28;20440;-52
2022/09/22 13:06:02;;;;;;;1.20;1.10;;;22.30;99.90;;;;;;5049068;28;20511;-52
2022/09/22 13:08:30;;;;;;;1.48;1.30;;;22.40;99.90;;;;;;5035246;28;20033;-51
2022/09/22 13:11:01;;;;;;;3.17;1.73;;;22.40;99.90;;;;;;5045933;28;20464;-52
2022/09/22 13:13:30;;;;;;;2.70;1.90;;;22.50;99.90;;;;;;5031240;28;20025;-52
2022/09/22 13:15:58;;;;;;;2.15;1.70;;;;;;;;;;5030989;28;20527;-51
2022/09/22 13:18:30;;;;;;;3.85;1.88;;;;;;;;;;5027865;28;20036;-51
2022/09/22 13:20:56;;;;;;;;;;;;;;;;;;5029944;28;20373;-51
2022/09/22 13:23:22;;;;;;;1.73;1.42;;;22.40;99.90;;;;;;5030815;28;19990;-51
2022/09/22 13:25:50;;;;;;;3.28;1.55;;;;;;;;;;5031507;28;20080;-51
2022/09/22 13:28:26;;;;;;;2.28;1.60;;;;;;;;;;5032485;28;20042;-51
2022/09/22 13:31:00;;;;;;;6.00;1.95;;;;;;;;;;5018250;28;20042;-52
2022/09/22 13:33:31;;;;;;;3.13;1.50;;;22.60;99.90;;;;;;5031869;28;20445;-50
2022/09/22 13:36:13;;;;;;;2.75;1.85;;;;;;;;;;5032467;28;20017;-51
2022/09/22 13:38:41;;;;;;;2.08;1.45;;;;;;;;;;5028924;28;20045;-51
2022/09/22 13:41:17;;;;;;;1.80;1.55;;;;;;;;;;5027253;28;20029;-53
2022/09/22 13:43:47;;;;;;;2.17;1.55;;;22.90;99.90;;;;;;5033177;28;20045;-52
2022/09/22 13:46:20;;;;;;;6.18;2.17;;;;;;;;;;5019547;28;20068;-51